This is the latest recevied weather packets stored in our database for station/object HB9MIR-13. If no packets are shown the sender has not sent any weather packets the latest 1 day(s).
| Time | Temp. | Humidity | Pressure | Rain* | Wind** | Luminosity | Snow |
|---|---|---|---|---|---|---|---|
| 1777975711 | 14.44° C | 80% | 1007.6 hPa | 0 mm | 0 m/s | 237 W/m² | - |
| 1777975025 | 14.44° C | 77% | 1007.6 hPa | 0 mm | 0 m/s | 213 W/m² | - |
| 1777974289 | 14.44° C | 77% | 1007.5 hPa | 0 mm | 0 m/s | 228 W/m² | - |
| 1777973574 | 14.44° C | 79% | 1007.5 hPa | 0 mm | 0 m/s | 215 W/m² | - |
| 1777972875 | 15° C | 79% | 1007.6 hPa | 0 mm | 0 m/s | 235 W/m² | - |
| 1777972150 | 13.89° C | 81% | 1007.8 hPa | 0 mm | 0 m/s | 273 W/m² | - |
| 1777971463 | 14.44° C | 81% | 1007.8 hPa | 0.25 mm | 0 m/s | 268 W/m² | - |
| 1777970726 | 13.89° C | 85% | 1007.8 hPa | 0.25 mm | 0 m/s | 270 W/m² | - |
| 1777970025 | 13.33° C | 86% | 1007.8 hPa | 0.25 mm | 0 m/s | 219 W/m² | - |
| 1777969325 | 12.78° C | 87% | 1008.1 hPa | 0.25 mm | 0 m/s | 191 W/m² | - |
| 1777968639 | 12.78° C | 88% | 1008.2 hPa | 0.25 mm | 0 m/s | 179 W/m² | - |
| 1777967951 | 12.78° C | 87% | 1008.4 hPa | 0.25 mm | 0 m/s | 99 W/m² | - |
| 1777967251 | 12.78° C | 88% | 1008.5 hPa | 0 mm | 0 m/s | 95 W/m² | - |
| 1777966565 | 12.78° C | 87% | 1008.6 hPa | 0 mm | 0 m/s | 88 W/m² | - |
| 1777965878 | 12.78° C | 86% | 1008.6 hPa | 0 mm | 0 m/s | 87 W/m² | - |
| 1777965177 | 12.78° C | 85% | 1008.6 hPa | 0 mm | 0 m/s | 107 W/m² | - |
| 1777964489 | 12.22° C | 86% | 1008.7 hPa | 0 mm | 0 m/s | 118 W/m² | - |
| 1777963803 | 12.22° C | 89% | 1008.7 hPa | 0 mm | 0 m/s | 102 W/m² | - |
| 1777963114 | 12.22° C | 88% | 1008.8 hPa | 0 mm | 0 m/s | 105 W/m² | - |
| 1777962426 | 12.22° C | 89% | 1008.9 hPa | 0 mm | 0 m/s | 149 W/m² | - |
| 1777961738 | 11.67° C | 90% | 1008.9 hPa | 0 mm | 0 m/s | 125 W/m² | - |
| 1777960214 | 11.11° C | 92% | 1008.9 hPa | 0 mm | 0 m/s | 89 W/m² | - |
| 1777959526 | 11.11° C | 91% | 1008.9 hPa | 0 mm | 0 m/s | 59 W/m² | - |
| 1777958838 | 10.56° C | 95% | 1008.9 hPa | 0 mm | 0 m/s | 94 W/m² | - |
| 1777958151 | 10.56° C | 95% | 1008.9 hPa | 0 mm | 0 m/s | 47 W/m² | - |
* Rain latest hour (hover to see other rain measurements)
** Current wind speed in m/s (hover to see current wind gust speed)